Morlanwelz-Mariemont, Belgium
Current Conditions -  °F | °C
As of 5:20 AM on Friday 19 Dec 2014 (Local Time) from EBCI Reporting Station
Light Rain Light Rain  
Wind Chill: 50°   Ceiling: 400
Heat Index: 50°   Visibility: 1.8mi
Dew Point: 48°   Wind: 20mph
Humidity: 94%   Direction: 220°SW
Pressure: 29.94"   Gusts: NA
Location:  50.46°N, 4.25°E
Report Text: EBCI 190420Z 22017KT 3000 -RA BKN004 10/09 Q1014 NOSIG
Loading
Personal Weather Stations






























Interactive Weather Map New forecast layout! Learn more

10-Day Weather Forecast

Advertisements
Track Severe Weather on mobile